NCAR-RAP Real-Time Weather Data

Output produced by METARs form (14 October 2019  22:34 UTC)
found at http://weather.rap.ucar.edu/surface/
 
KBOS 142225Z 11008KT 10SM BCFG SCT002 SCT027 15/13 A2991 RMK AO2 VIS NW-NE 1/2 T01500128
KBOS 142154Z 11011KT 10SM FEW006 FEW025 15/13 A2990 RMK AO2 SLP125 T01500128
KBOS 142054Z 11011KT 10SM FEW012 FEW025 16/13 A2989 RMK AO2 SLP121 T01610128 56014
KBOS 141954Z 10008KT 10SM FEW021 SCT027 18/13 A2989 RMK AO2 SLP121 T01780133
KBOS 141906Z 12009KT 10SM FEW021 SCT027 18/13 A2990 RMK AO2 T01780133
KBOS 141854Z 11010KT 10SM FEW023 BKN027 18/13 A2990 RMK AO2 SLP126 T01780128
KBOS 141754Z 10010KT 10SM BKN029 17/12 A2993 RMK AO2 SLP134 T01720117 10183 20128 56023
KBOS 141654Z 08008KT 10SM BKN029 17/12 A2995 RMK AO2 SLP142 T01670122
KBOS 141646Z 07008KT 10SM BKN029 17/12 A2995 RMK AO2 T01720117
KBOS 141554Z 13007KT 10SM FEW040 FEW070 18/10 A2997 RMK AO2 SLP147 T01780100
KBOS 141454Z 13004KT 10SM FEW040 FEW070 17/09 A3000 RMK A02 SLP157 T01720094 58004
KBOS 141354Z 15003KT 10SM FEW045 FEW065 16/11 A3001 RMK AO2 SLP161 T01560106
KBOS 141254Z 18005KT 10SM FEW060 FEW090 15/09 A3002 RMK AO2 SLP165 T01500094
KBOS 141154Z 00000KT 10SM SCT060 13/09 A3001 RMK AO2 SLP161 T01330089 10133 20111 53003
KBOS 141054Z 19003KT 10SM BKN075 12/08 A2999 RMK AO2 SLP155 T01220083
KBOS 140954Z 00000KT 10SM OVC075 12/08 A3000 RMK AO2 SLP157 T01220083
KBOS 140854Z 15005KT 10SM FEW080 BKN150 OVC220 11/08 A3000 RMK AO2 SLP158 T01110078 56013
KBOS 140754Z 21003KT 10SM OVC080 12/08 A3000 RMK AO2 SLP159 T01220083
KBOS 140654Z 20006KT 10SM SCT180 BKN200 12/08 A3001 RMK AO2 SLP163 T01170083
KBOS 140554Z 20005KT 10SM SCT085 SCT150 OVC220 12/08 A3004 RMK AO2 SLP171 T01170083 10156 20117 53001
KBOS 140454Z 20007KT 10SM FEW180 BKN220 BKN250 12/09 A3004 RMK AO2 SLP170 T01170089 402110111
KBOS 140354Z 19004KT 10SM FEW180 SCT220 SCT250 13/09 A3003 RMK AO2 SLP167 T01280094
KBOS 140254Z 18003KT 10SM SCT220 BKN250 13/09 A3004 RMK AO2 SLP170 T01330094 50001
KBOS 140154Z 19005KT 10SM SCT220 BKN250 14/11 A3005 RMK AO2 SLP175 T01440106
KBOS 140054Z 15004KT 10SM BKN220 OVC250 14/12 A3003 RMK AO2 SLP169 T01440117
KBOS 132354Z 16006KT 10SM BKN220 OVC250 16/12 A3003 RMK AO2 SLP169 T01560117 10194 20144 50002
KBOS 132254Z 10003KT 10SM FEW150 SCT220 BKN250 15/11 A3004 RMK AO2 SLP170 T01500111
KBOS 132154Z 10005KT 10SM SCT150 SCT220 BKN250 16/11 A3003 RMK AO2 SLP170 T01560111
KBOS 132054Z 08008KT 10SM FEW045 SCT180 SCT200 BKN250 17/12 A3003 RMK AO2 SLP167 T01670122 55004
KBOS 131954Z 12008KT 10SM SCT048 SCT180 BKN220 BKN250 17/11 A3002 RMK AO2 SLP166 T01720111
KBOS 131854Z 13007KT 10SM SCT048 SCT180 BKN220 BKN250 18/11 A3003 RMK AO2 SLP167 T01830111
KBOS 131754Z 12008KT 10SM FEW035 FEW055 BKN250 19/11 A3004 RMK AO2 SLP171 T01890111 10211 20139 58007
KBOS 131654Z 27006KT 10SM FEW035 FEW055 BKN250 19/10 A3005 RMK AO2 SLP174 T01940100
KBOS 131554Z 29008KT 250V330 10SM FEW050 BKN250 19/10 A3006 RMK AO2 SLP177 T01890100
KBOS 131454Z 32006KT 10SM FEW055 BKN250 18/11 A3006 RMK AO2 SLP178 T01780106 51010
KBOS 131354Z 31009KT 10SM FEW055 BKN250 17/10 A3005 RMK AO2 SLP175 T01670100
KBOS 131254Z 30007KT 10SM FEW050 SCT250 15/10 A3004 RMK AO2 SLP173 T01500100
KBOS 131154Z 28006KT 10SM SCT048 SCT250 14/09 A3003 RMK AO2 SLP168 T01390094 10144 20111 53018
KBOS 131054Z 28006KT 10SM SCT060 SCT090 13/09 A3001 RMK AO2 SLP161 T01280094
KBOS 130954Z 22003KT 10SM BKN055 12/09 A2999 RMK AO2 SLP155 T01220094
KBOS 130854Z 21005KT 10SM BKN060 12/09 A2998 RMK AO2 SLP150 T01220094 53003
KBOS 130754Z 20004KT 10SM BKN060 12/10 A2997 RMK AO2 SLP149 T01220100
KBOS 130654Z 00000KT 10SM FEW055 12/09 A2997 RMK AO2 SLP148 T01170089
KBOS 130554Z 31003KT 10SM FEW019 12/09 A2997 RMK AO2 SLP148 T01220094 10144 20122 50000
KBOS 130454Z 30004KT 10SM FEW018 13/10 A2997 RMK AO2 SLP148 T01280100 401440117
KBOS 130410Z 31004KT 10SM SCT019 13/09 A2997 RMK AO2 T01330094
KBOS 130354Z 31004KT 10SM BKN019 13/09 A2997 RMK AO2 SLP148 T01330094
KBOS 130254Z 29004KT 10SM FEW015 BKN021 14/10 A2997 RMK AO2 SLP148 T01390100 52002
KBOS 130238Z 00000KT 10SM BKN019 13/09 A2997 RMK AO2 T01330094
KBOS 130154Z 00000KT 10SM FEW016 FEW042 13/09 A2997 RMK AO2 SLP148 T01330094
KBOS 130054Z 00000KT 10SM FEW023 BKN040 14/10 A2996 RMK AO2 SLP146 T01440100
KBOS 130029Z 03003KT 10SM SCT023 BKN041 14/10 A2995 RMK AO2 T01390100
KBOS 122354Z VRB03KT 10SM BKN015 OVC045 14/10 A2996 RMK AO2 SLP146 T01440100 10144 20139 53008
KBOS 122254Z 35004KT 10SM OVC017 14/10 A2995 RMK AO2 SLP142 T01440100